sensor_id;sensor_type;location;lat;lon;timestamp;P1;durP1;ratioP1;P2;durP2;ratioP2
16800;SDS011;8518;53.236;10.384;2023-04-19T00:01:40;6.30;;;2.87;;
16800;SDS011;8518;53.236;10.384;2023-04-19T00:07:28;4.80;;;2.70;;
16800;SDS011;8518;53.236;10.384;2023-04-19T00:09:54;3.77;;;2.50;;
16800;SDS011;8518;53.236;10.384;2023-04-19T00:12:20;4.27;;;2.90;;
16800;SDS011;8518;53.236;10.384;2023-04-19T00:14:48;3.10;;;2.80;;
16800;SDS011;8518;53.236;10.384;2023-04-19T00:17:15;4.53;;;2.70;;
16800;SDS011;8518;53.236;10.384;2023-04-19T00:19:40;4.23;;;2.57;;
16800;SDS011;8518;53.236;10.384;2023-04-19T00:22:07;6.43;;;2.67;;
16800;SDS011;8518;53.236;10.384;2023-04-19T00:24:33;3.80;;;2.73;;
16800;SDS011;8518;53.236;10.384;2023-04-19T00:26:58;3.03;;;2.70;;
16800;SDS011;8518;53.236;10.384;2023-04-19T00:29:24;3.27;;;2.80;;
16800;SDS011;8518;53.236;10.384;2023-04-19T00:31:50;3.60;;;2.73;;
16800;SDS011;8518;53.236;10.384;2023-04-19T00:37:41;3.27;;;2.60;;
16800;SDS011;8518;53.236;10.384;2023-04-19T00:40:06;3.43;;;2.53;;
16800;SDS011;8518;53.236;10.384;2023-04-19T00:42:32;3.97;;;2.83;;
16800;SDS011;8518;53.236;10.384;2023-04-19T00:45:00;3.83;;;2.67;;
16800;SDS011;8518;53.236;10.384;2023-04-19T00:47:28;4.03;;;2.63;;
16800;SDS011;8518;53.236;10.384;2023-04-19T00:49:54;4.67;;;2.63;;
16800;SDS011;8518;53.236;10.384;2023-04-19T00:52:29;5.80;;;3.50;;
16800;SDS011;8518;53.236;10.384;2023-04-19T00:54:57;5.40;;;3.40;;
16800;SDS011;8518;53.236;10.384;2023-04-19T00:57:23;5.57;;;3.03;;
16800;SDS011;8518;53.236;10.384;2023-04-19T00:59:49;4.60;;;3.50;;
16800;SDS011;8518;53.236;10.384;2023-04-19T01:02:18;5.17;;;3.20;;
16800;SDS011;8518;53.236;10.384;2023-04-19T01:04:46;6.40;;;3.03;;
16800;SDS011;8518;53.236;10.384;2023-04-19T01:07:11;4.83;;;3.43;;
16800;SDS011;8518;53.236;10.384;2023-04-19T01:09:42;4.00;;;3.37;;
16800;SDS011;8518;53.236;10.384;2023-04-19T01:12:08;5.53;;;3.83;;
16800;SDS011;8518;53.236;10.384;2023-04-19T01:14:34;5.70;;;3.63;;
16800;SDS011;8518;53.236;10.384;2023-04-19T01:17:00;5.90;;;3.37;;
16800;SDS011;8518;53.236;10.384;2023-04-19T01:19:25;7.10;;;3.70;;
16800;SDS011;8518;53.236;10.384;2023-04-19T01:21:54;5.23;;;3.43;;
16800;SDS011;8518;53.236;10.384;2023-04-19T01:27:45;5.03;;;3.73;;
16800;SDS011;8518;53.236;10.384;2023-04-19T01:30:10;5.23;;;3.40;;
16800;SDS011;8518;53.236;10.384;2023-04-19T01:32:36;6.93;;;3.87;;
16800;SDS011;8518;53.236;10.384;2023-04-19T01:35:02;4.97;;;4.27;;
16800;SDS011;8518;53.236;10.384;2023-04-19T01:37:33;6.53;;;3.93;;
16800;SDS011;8518;53.236;10.384;2023-04-19T01:39:59;5.10;;;3.13;;
16800;SDS011;8518;53.236;10.384;2023-04-19T01:42:25;4.37;;;3.70;;
16800;SDS011;8518;53.236;10.384;2023-04-19T01:44:57;5.07;;;3.40;;
16800;SDS011;8518;53.236;10.384;2023-04-19T01:47:23;6.57;;;3.47;;
16800;SDS011;8518;53.236;10.384;2023-04-19T01:49:49;4.00;;;3.07;;
16800;SDS011;8518;53.236;10.384;2023-04-19T01:52:15;3.70;;;3.00;;
16800;SDS011;8518;53.236;10.384;2023-04-19T01:54:43;4.93;;;3.20;;
16800;SDS011;8518;53.236;10.384;2023-04-19T01:57:11;4.33;;;3.00;;
16800;SDS011;8518;53.236;10.384;2023-04-19T01:59:37;6.10;;;3.20;;
16800;SDS011;8518;53.236;10.384;2023-04-19T02:02:05;4.30;;;3.13;;
16800;SDS011;8518;53.236;10.384;2023-04-19T02:07:54;4.00;;;3.23;;
16800;SDS011;8518;53.236;10.384;2023-04-19T02:10:25;3.93;;;3.20;;
16800;SDS011;8518;53.236;10.384;2023-04-19T02:16:13;5.27;;;3.10;;
16800;SDS011;8518;53.236;10.384;2023-04-19T02:18:41;6.60;;;3.27;;
16800;SDS011;8518;53.236;10.384;2023-04-19T02:21:10;4.43;;;3.30;;
16800;SDS011;8518;53.236;10.384;2023-04-19T02:26:59;5.50;;;2.97;;
16800;SDS011;8518;53.236;10.384;2023-04-19T02:29:25;5.47;;;3.13;;
16800;SDS011;8518;53.236;10.384;2023-04-19T02:31:51;5.30;;;3.17;;
16800;SDS011;8518;53.236;10.384;2023-04-19T02:37:40;5.13;;;3.37;;
16800;SDS011;8518;53.236;10.384;2023-04-19T02:40:06;4.07;;;3.07;;
16800;SDS011;8518;53.236;10.384;2023-04-19T02:42:32;3.50;;;2.80;;
16800;SDS011;8518;53.236;10.384;2023-04-19T02:44:58;5.30;;;3.17;;
16800;SDS011;8518;53.236;10.384;2023-04-19T02:47:24;6.00;;;2.93;;
16800;SDS011;8518;53.236;10.384;2023-04-19T02:49:50;5.30;;;3.63;;
16800;SDS011;8518;53.236;10.384;2023-04-19T02:52:15;3.57;;;3.17;;
16800;SDS011;8518;53.236;10.384;2023-04-19T02:54:43;3.47;;;3.07;;
16800;SDS011;8518;53.236;10.384;2023-04-19T02:57:09;4.60;;;3.67;;
16800;SDS011;8518;53.236;10.384;2023-04-19T02:59:35;3.20;;;2.70;;
16800;SDS011;8518;53.236;10.384;2023-04-19T03:02:02;3.87;;;3.07;;
16800;SDS011;8518;53.236;10.384;2023-04-19T03:07:49;3.70;;;2.70;;
16800;SDS011;8518;53.236;10.384;2023-04-19T03:10:15;4.67;;;2.90;;
16800;SDS011;8518;53.236;10.384;2023-04-19T03:16:03;4.27;;;2.80;;
16800;SDS011;8518;53.236;10.384;2023-04-19T03:18:29;3.73;;;2.90;;
16800;SDS011;8518;53.236;10.384;2023-04-19T03:20:55;4.93;;;3.10;;
16800;SDS011;8518;53.236;10.384;2023-04-19T03:26:43;4.37;;;3.00;;
16800;SDS011;8518;53.236;10.384;2023-04-19T03:29:08;4.73;;;3.03;;
16800;SDS011;8518;53.236;10.384;2023-04-19T03:31:34;4.53;;;2.83;;
16800;SDS011;8518;53.236;10.384;2023-04-19T03:37:23;4.17;;;2.80;;
16800;SDS011;8518;53.236;10.384;2023-04-19T03:39:48;4.90;;;2.73;;
16800;SDS011;8518;53.236;10.384;2023-04-19T03:42:14;5.17;;;2.80;;
16800;SDS011;8518;53.236;10.384;2023-04-19T03:44:40;3.67;;;2.80;;
16800;SDS011;8518;53.236;10.384;2023-04-19T03:47:05;4.70;;;2.80;;
16800;SDS011;8518;53.236;10.384;2023-04-19T03:49:31;3.90;;;2.80;;
16800;SDS011;8518;53.236;10.384;2023-04-19T03:51:57;6.97;;;3.47;;
16800;SDS011;8518;53.236;10.384;2023-04-19T03:54:22;5.37;;;2.70;;
16800;SDS011;8518;53.236;10.384;2023-04-19T03:56:51;5.00;;;3.10;;
16800;SDS011;8518;53.236;10.384;2023-04-19T03:59:16;2.93;;;2.50;;
16800;SDS011;8518;53.236;10.384;2023-04-19T04:01:42;5.17;;;2.53;;
16800;SDS011;8518;53.236;10.384;2023-04-19T04:07:29;4.93;;;2.80;;
16800;SDS011;8518;53.236;10.384;2023-04-19T04:09:55;4.77;;;2.73;;
16800;SDS011;8518;53.236;10.384;2023-04-19T04:12:21;3.80;;;2.53;;
16800;SDS011;8518;53.236;10.384;2023-04-19T04:14:46;4.37;;;2.97;;
16800;SDS011;8518;53.236;10.384;2023-04-19T04:17:18;4.00;;;2.50;;
16800;SDS011;8518;53.236;10.384;2023-04-19T04:19:43;4.17;;;2.80;;
16800;SDS011;8518;53.236;10.384;2023-04-19T04:22:14;5.30;;;2.73;;
16800;SDS011;8518;53.236;10.384;2023-04-19T04:24:40;2.73;;;2.43;;
16800;SDS011;8518;53.236;10.384;2023-04-19T04:27:09;4.57;;;2.53;;
16800;SDS011;8518;53.236;10.384;2023-04-19T04:29:38;4.77;;;2.87;;
16800;SDS011;8518;53.236;10.384;2023-04-19T04:32:07;4.17;;;2.60;;
16800;SDS011;8518;53.236;10.384;2023-04-19T04:34:34;5.03;;;3.00;;
16800;SDS011;8518;53.236;10.384;2023-04-19T04:37:01;3.67;;;2.67;;
16800;SDS011;8518;53.236;10.384;2023-04-19T04:39:33;4.17;;;2.53;;
16800;SDS011;8518;53.236;10.384;2023-04-19T04:42:03;5.10;;;2.80;;
16800;SDS011;8518;53.236;10.384;2023-04-19T04:47:55;4.33;;;2.40;;
16800;SDS011;8518;53.236;10.384;2023-04-19T04:50:20;4.87;;;2.67;;
16800;SDS011;8518;53.236;10.384;2023-04-19T04:52:46;5.03;;;2.97;;
16800;SDS011;8518;53.236;10.384;2023-04-19T04:55:11;5.37;;;2.90;;
16800;SDS011;8518;53.236;10.384;2023-04-19T04:57:37;5.17;;;2.60;;
16800;SDS011;8518;53.236;10.384;2023-04-19T05:00:06;4.87;;;2.57;;
16800;SDS011;8518;53.236;10.384;2023-04-19T05:02:33;6.70;;;2.47;;
16800;SDS011;8518;53.236;10.384;2023-04-19T05:04:58;5.40;;;2.37;;
16800;SDS011;8518;53.236;10.384;2023-04-19T05:07:24;5.90;;;2.70;;
16800;SDS011;8518;53.236;10.384;2023-04-19T05:09:50;5.70;;;2.77;;
16800;SDS011;8518;53.236;10.384;2023-04-19T05:12:18;7.13;;;3.30;;
16800;SDS011;8518;53.236;10.384;2023-04-19T05:14:44;4.70;;;3.33;;
16800;SDS011;8518;53.236;10.384;2023-04-19T05:17:11;5.10;;;3.40;;
16800;SDS011;8518;53.236;10.384;2023-04-19T05:19:42;3.83;;;2.73;;
16800;SDS011;8518;53.236;10.384;2023-04-19T05:22:09;6.50;;;2.90;;
16800;SDS011;8518;53.236;10.384;2023-04-19T05:24:38;3.77;;;2.40;;
16800;SDS011;8518;53.236;10.384;2023-04-19T05:27:04;3.47;;;2.47;;
16800;SDS011;8518;53.236;10.384;2023-04-19T05:29:30;2.63;;;2.23;;
16800;SDS011;8518;53.236;10.384;2023-04-19T05:31:59;4.10;;;2.10;;
16800;SDS011;8518;53.236;10.384;2023-04-19T05:37:47;2.43;;;2.00;;
16800;SDS011;8518;53.236;10.384;2023-04-19T05:43:34;3.40;;;2.10;;
16800;SDS011;8518;53.236;10.384;2023-04-19T05:46:03;2.83;;;1.67;;
16800;SDS011;8518;53.236;10.384;2023-04-19T05:48:28;2.57;;;1.57;;
16800;SDS011;8518;53.236;10.384;2023-04-19T05:50:54;4.37;;;1.77;;
16800;SDS011;8518;53.236;10.384;2023-04-19T05:53:21;2.40;;;1.70;;
16800;SDS011;8518;53.236;10.384;2023-04-19T05:55:50;4.43;;;1.53;;
16800;SDS011;8518;53.236;10.384;2023-04-19T05:58:16;3.13;;;1.53;;
16800;SDS011;8518;53.236;10.384;2023-04-19T06:00:42;2.93;;;1.47;;
16800;SDS011;8518;53.236;10.384;2023-04-19T06:06:30;2.17;;;1.37;;
16800;SDS011;8518;53.236;10.384;2023-04-19T06:08:57;2.37;;;1.40;;
16800;SDS011;8518;53.236;10.384;2023-04-19T06:11:26;2.17;;;1.40;;
16800;SDS011;8518;53.236;10.384;2023-04-19T06:17:14;3.57;;;1.70;;
16800;SDS011;8518;53.236;10.384;2023-04-19T06:19:48;2.13;;;0.97;;
16800;SDS011;8518;53.236;10.384;2023-04-19T06:22:14;2.00;;;1.00;;
16800;SDS011;8518;53.236;10.384;2023-04-19T06:24:43;1.63;;;1.03;;
16800;SDS011;8518;53.236;10.384;2023-04-19T06:27:10;2.63;;;1.30;;
16800;SDS011;8518;53.236;10.384;2023-04-19T06:29:35;3.60;;;1.03;;
16800;SDS011;8518;53.236;10.384;2023-04-19T06:32:01;3.43;;;1.10;;
16800;SDS011;8518;53.236;10.384;2023-04-19T06:37:49;1.60;;;0.70;;
16800;SDS011;8518;53.236;10.384;2023-04-19T06:40:15;1.17;;;0.90;;
16800;SDS011;8518;53.236;10.384;2023-04-19T06:46:03;1.50;;;0.70;;
16800;SDS011;8518;53.236;10.384;2023-04-19T06:48:29;1.17;;;0.70;;
16800;SDS011;8518;53.236;10.384;2023-04-19T06:50:57;1.37;;;0.70;;
16800;SDS011;8518;53.236;10.384;2023-04-19T06:53:23;2.83;;;0.90;;
16800;SDS011;8518;53.236;10.384;2023-04-19T06:56:01;1.33;;;0.83;;
16800;SDS011;8518;53.236;10.384;2023-04-19T06:58:30;2.03;;;0.73;;
16800;SDS011;8518;53.236;10.384;2023-04-19T07:00:56;1.77;;;0.73;;
16800;SDS011;8518;53.236;10.384;2023-04-19T07:06:47;1.10;;;0.80;;
16800;SDS011;8518;53.236;10.384;2023-04-19T07:09:13;2.27;;;0.80;;
16800;SDS011;8518;53.236;10.384;2023-04-19T07:11:47;2.60;;;0.90;;
16800;SDS011;8518;53.236;10.384;2023-04-19T07:17:35;1.60;;;0.90;;
16800;SDS011;8518;53.236;10.384;2023-04-19T07:20:01;1.63;;;0.90;;
16800;SDS011;8518;53.236;10.384;2023-04-19T07:22:30;1.20;;;0.90;;
16800;SDS011;8518;53.236;10.384;2023-04-19T07:24:56;2.13;;;0.70;;
16800;SDS011;8518;53.236;10.384;2023-04-19T07:27:22;1.67;;;0.70;;
16800;SDS011;8518;53.236;10.384;2023-04-19T07:29:51;1.90;;;0.70;;
16800;SDS011;8518;53.236;10.384;2023-04-19T07:32:17;1.43;;;0.97;;
16800;SDS011;8518;53.236;10.384;2023-04-19T07:34:43;2.00;;;0.80;;
16800;SDS011;8518;53.236;10.384;2023-04-19T07:37:12;0.90;;;0.60;;
16800;SDS011;8518;53.236;10.384;2023-04-19T07:39:38;1.77;;;1.00;;
16800;SDS011;8518;53.236;10.384;2023-04-19T07:42:04;1.60;;;0.70;;
16800;SDS011;8518;53.236;10.384;2023-04-19T07:47:59;1.10;;;0.73;;
16800;SDS011;8518;53.236;10.384;2023-04-19T07:50:28;2.03;;;0.93;;
16800;SDS011;8518;53.236;10.384;2023-04-19T07:52:53;1.63;;;0.90;;
16800;SDS011;8518;53.236;10.384;2023-04-19T07:55:20;3.63;;;1.00;;
16800;SDS011;8518;53.236;10.384;2023-04-19T07:57:47;2.70;;;0.93;;
16800;SDS011;8518;53.236;10.384;2023-04-19T08:00:17;1.17;;;0.90;;
16800;SDS011;8518;53.236;10.384;2023-04-19T08:06:07;1.93;;;0.90;;
16800;SDS011;8518;53.236;10.384;2023-04-19T08:08:38;1.30;;;0.83;;
16800;SDS011;8518;53.236;10.384;2023-04-19T08:11:05;1.10;;;0.90;;
16800;SDS011;8518;53.236;10.384;2023-04-19T08:16:53;1.63;;;1.07;;
16800;SDS011;8518;53.236;10.384;2023-04-19T08:19:22;2.40;;;1.23;;
16800;SDS011;8518;53.236;10.384;2023-04-19T08:21:47;2.50;;;1.20;;
16800;SDS011;8518;53.236;10.384;2023-04-19T08:27:37;1.42;;;1.10;;
16800;SDS011;8518;53.236;10.384;2023-04-19T08:33:25;1.40;;;1.10;;
16800;SDS011;8518;53.236;10.384;2023-04-19T08:35:52;3.25;;;1.25;;
16800;SDS011;8518;53.236;10.384;2023-04-19T08:38:18;2.17;;;1.10;;
16800;SDS011;8518;53.236;10.384;2023-04-19T08:40:49;1.95;;;1.08;;
16800;SDS011;8518;53.236;10.384;2023-04-19T08:46:40;2.20;;;1.00;;
16800;SDS011;8518;53.236;10.384;2023-04-19T08:49:06;1.23;;;1.00;;
16800;SDS011;8518;53.236;10.384;2023-04-19T08:51:33;1.88;;;1.10;;
16800;SDS011;8518;53.236;10.384;2023-04-19T08:54:04;3.15;;;1.10;;
16800;SDS011;8518;53.236;10.384;2023-04-19T08:56:34;3.35;;;1.23;;
16800;SDS011;8518;53.236;10.384;2023-04-19T08:59:01;2.25;;;1.20;;
16800;SDS011;8518;53.236;10.384;2023-04-19T09:01:27;2.30;;;1.25;;
16800;SDS011;8518;53.236;10.384;2023-04-19T09:07:26;1.25;;;1.00;;
16800;SDS011;8518;53.236;10.384;2023-04-19T09:10:05;2.05;;;1.00;;
16800;SDS011;8518;53.236;10.384;2023-04-19T09:16:02;1.98;;;1.20;;
16800;SDS011;8518;53.236;10.384;2023-04-19T09:18:28;3.88;;;1.20;;
16800;SDS011;8518;53.236;10.384;2023-04-19T09:20:55;3.25;;;1.15;;
16800;SDS011;8518;53.236;10.384;2023-04-19T09:26:52;2.00;;;1.00;;
16800;SDS011;8518;53.236;10.384;2023-04-19T09:29:19;2.63;;;1.25;;
16800;SDS011;8518;53.236;10.384;2023-04-19T09:31:56;1.98;;;1.15;;
16800;SDS011;8518;53.236;10.384;2023-04-19T09:37:57;3.63;;;1.20;;
16800;SDS011;8518;53.236;10.384;2023-04-19T09:40:25;2.72;;;1.17;;
16800;SDS011;8518;53.236;10.384;2023-04-19T09:46:29;1.85;;;1.50;;
16800;SDS011;8518;53.236;10.384;2023-04-19T09:51:43;3.30;;;1.20;;
16800;SDS011;8518;53.236;10.384;2023-04-19T09:54:13;2.88;;;1.38;;
16800;SDS011;8518;53.236;10.384;2023-04-19T09:56:41;1.73;;;1.13;;
16800;SDS011;8518;53.236;10.384;2023-04-19T09:59:07;2.58;;;1.10;;
16800;SDS011;8518;53.236;10.384;2023-04-19T10:07:24;4.25;;;1.80;;
16800;SDS011;8518;53.236;10.384;2023-04-19T10:09:55;3.00;;;1.08;;
16800;SDS011;8518;53.236;10.384;2023-04-19T10:12:25;2.85;;;1.10;;
16800;SDS011;8518;53.236;10.384;2023-04-19T10:14:54;5.35;;;1.70;;
16800;SDS011;8518;53.236;10.384;2023-04-19T10:17:23;2.80;;;1.50;;
16800;SDS011;8518;53.236;10.384;2023-04-19T10:19:55;1.60;;;1.23;;
16800;SDS011;8518;53.236;10.384;2023-04-19T10:22:25;6.22;;;1.33;;
16800;SDS011;8518;53.236;10.384;2023-04-19T10:27:37;3.05;;;1.80;;
16800;SDS011;8518;53.236;10.384;2023-04-19T10:30:04;1.50;;;1.40;;
16800;SDS011;8518;53.236;10.384;2023-04-19T10:32:37;3.13;;;1.50;;
16800;SDS011;8518;53.236;10.384;2023-04-19T10:35:08;4.45;;;1.55;;
16800;SDS011;8518;53.236;10.384;2023-04-19T10:37:40;2.28;;;1.58;;
16800;SDS011;8518;53.236;10.384;2023-04-19T10:46:40;3.72;;;1.73;;
16800;SDS011;8518;53.236;10.384;2023-04-19T10:49:09;3.03;;;1.67;;
16800;SDS011;8518;53.236;10.384;2023-04-19T10:51:38;4.80;;;1.60;;
16800;SDS011;8518;53.236;10.384;2023-04-19T10:54:07;2.10;;;1.40;;
16800;SDS011;8518;53.236;10.384;2023-04-19T11:01:35;4.03;;;1.60;;
16800;SDS011;8518;53.236;10.384;2023-04-19T11:07:35;2.97;;;1.50;;
16800;SDS011;8518;53.236;10.384;2023-04-19T11:10:05;2.28;;;1.45;;
16800;SDS011;8518;53.236;10.384;2023-04-19T11:12:32;5.05;;;1.88;;
16800;SDS011;8518;53.236;10.384;2023-04-19T11:14:58;2.05;;;1.58;;
16800;SDS011;8518;53.236;10.384;2023-04-19T11:17:25;1.85;;;1.38;;
16800;SDS011;8518;53.236;10.384;2023-04-19T11:20:03;3.28;;;1.50;;
16800;SDS011;8518;53.236;10.384;2023-04-19T11:25:55;5.78;;;1.75;;
16800;SDS011;8518;53.236;10.384;2023-04-19T11:31:44;3.42;;;1.75;;
16800;SDS011;8518;53.236;10.384;2023-04-19T11:37:33;3.85;;;2.08;;
16800;SDS011;8518;53.236;10.384;2023-04-19T11:40:00;2.45;;;1.48;;
16800;SDS011;8518;53.236;10.384;2023-04-19T11:42:31;3.97;;;1.85;;
16800;SDS011;8518;53.236;10.384;2023-04-19T11:45:00;2.30;;;1.70;;
16800;SDS011;8518;53.236;10.384;2023-04-19T11:47:29;3.10;;;1.60;;
16800;SDS011;8518;53.236;10.384;2023-04-19T11:50:28;4.30;;;1.80;;
16800;SDS011;8518;53.236;10.384;2023-04-19T11:52:54;2.78;;;1.60;;
16800;SDS011;8518;53.236;10.384;2023-04-19T11:55:20;3.60;;;1.60;;
16800;SDS011;8518;53.236;10.384;2023-04-19T11:57:49;2.13;;;1.42;;
16800;SDS011;8518;53.236;10.384;2023-04-19T12:00:17;3.33;;;1.60;;
16800;SDS011;8518;53.236;10.384;2023-04-19T12:06:24;4.00;;;1.90;;
16800;SDS011;8518;53.236;10.384;2023-04-19T12:08:57;5.30;;;1.83;;
16800;SDS011;8518;53.236;10.384;2023-04-19T12:11:23;2.33;;;1.75;;
16800;SDS011;8518;53.236;10.384;2023-04-19T12:17:12;1.90;;;1.50;;
16800;SDS011;8518;53.236;10.384;2023-04-19T12:23:03;3.70;;;1.80;;
16800;SDS011;8518;53.236;10.384;2023-04-19T12:25:32;6.25;;;1.83;;
16800;SDS011;8518;53.236;10.384;2023-04-19T12:27:59;4.45;;;1.90;;
16800;SDS011;8518;53.236;10.384;2023-04-19T12:30:26;3.92;;;1.90;;
16800;SDS011;8518;53.236;10.384;2023-04-19T12:36:14;3.25;;;1.70;;
16800;SDS011;8518;53.236;10.384;2023-04-19T12:38:40;4.35;;;2.08;;
16800;SDS011;8518;53.236;10.384;2023-04-19T12:41:06;4.75;;;1.90;;
16800;SDS011;8518;53.236;10.384;2023-04-19T12:46:54;2.78;;;1.77;;
16800;SDS011;8518;53.236;10.384;2023-04-19T12:49:21;2.50;;;1.60;;
16800;SDS011;8518;53.236;10.384;2023-04-19T12:52:14;4.70;;;1.70;;
16800;SDS011;8518;53.236;10.384;2023-04-19T12:54:40;4.85;;;2.20;;
16800;SDS011;8518;53.236;10.384;2023-04-19T12:57:06;6.10;;;2.00;;
16800;SDS011;8518;53.236;10.384;2023-04-19T12:59:32;1.90;;;1.52;;
16800;SDS011;8518;53.236;10.384;2023-04-19T13:01:58;3.35;;;2.00;;
16800;SDS011;8518;53.236;10.384;2023-04-19T13:07:46;4.50;;;1.90;;
16800;SDS011;8518;53.236;10.384;2023-04-19T13:13:38;2.90;;;1.60;;
16800;SDS011;8518;53.236;10.384;2023-04-19T13:16:04;3.20;;;1.73;;
16800;SDS011;8518;53.236;10.384;2023-04-19T13:18:34;3.28;;;2.00;;
16800;SDS011;8518;53.236;10.384;2023-04-19T13:21:03;3.42;;;2.00;;
16800;SDS011;8518;53.236;10.384;2023-04-19T13:26:50;2.95;;;1.70;;
16800;SDS011;8518;53.236;10.384;2023-04-19T13:29:16;5.32;;;1.70;;
16800;SDS011;8518;53.236;10.384;2023-04-19T13:31:44;2.40;;;1.77;;
16800;SDS011;8518;53.236;10.384;2023-04-19T13:37:33;3.53;;;1.75;;
16800;SDS011;8518;53.236;10.384;2023-04-19T13:39:58;3.57;;;1.87;;
16800;SDS011;8518;53.236;10.384;2023-04-19T13:42:24;2.63;;;2.10;;
16800;SDS011;8518;53.236;10.384;2023-04-19T13:44:49;3.97;;;1.47;;
16800;SDS011;8518;53.236;10.384;2023-04-19T13:47:15;9.20;;;1.80;;
16800;SDS011;8518;53.236;10.384;2023-04-19T13:49:43;3.40;;;1.83;;
16800;SDS011;8518;53.236;10.384;2023-04-19T13:52:09;5.33;;;1.90;;
16800;SDS011;8518;53.236;10.384;2023-04-19T13:54:35;4.03;;;2.10;;
16800;SDS011;8518;53.236;10.384;2023-04-19T13:57:01;3.33;;;1.77;;
16800;SDS011;8518;53.236;10.384;2023-04-19T13:59:27;2.93;;;1.50;;
16800;SDS011;8518;53.236;10.384;2023-04-19T14:01:54;3.80;;;1.70;;
16800;SDS011;8518;53.236;10.384;2023-04-19T14:07:44;3.93;;;1.60;;
16800;SDS011;8518;53.236;10.384;2023-04-19T14:10:10;6.93;;;1.90;;
16800;SDS011;8518;53.236;10.384;2023-04-19T14:12:36;2.67;;;1.90;;
16800;SDS011;8518;53.236;10.384;2023-04-19T14:15:01;3.60;;;1.70;;
16800;SDS011;8518;53.236;10.384;2023-04-19T14:17:27;1.83;;;1.40;;
16800;SDS011;8518;53.236;10.384;2023-04-19T14:19:59;4.83;;;2.17;;
16800;SDS011;8518;53.236;10.384;2023-04-19T14:22:30;4.17;;;2.00;;
16800;SDS011;8518;53.236;10.384;2023-04-19T14:24:56;3.37;;;1.50;;
16800;SDS011;8518;53.236;10.384;2023-04-19T14:27:25;2.70;;;1.80;;
16800;SDS011;8518;53.236;10.384;2023-04-19T14:29:50;4.13;;;1.70;;
16800;SDS011;8518;53.236;10.384;2023-04-19T14:32:19;4.47;;;1.80;;
16800;SDS011;8518;53.236;10.384;2023-04-19T14:34:44;3.63;;;2.10;;
16800;SDS011;8518;53.236;10.384;2023-04-19T14:37:10;3.97;;;1.47;;
16800;SDS011;8518;53.236;10.384;2023-04-19T14:39:36;4.47;;;2.00;;
16800;SDS011;8518;53.236;10.384;2023-04-19T14:42:01;3.17;;;1.60;;
16800;SDS011;8518;53.236;10.384;2023-04-19T14:47:49;3.80;;;1.60;;
16800;SDS011;8518;53.236;10.384;2023-04-19T14:53:38;5.13;;;1.93;;
16800;SDS011;8518;53.236;10.384;2023-04-19T14:56:04;4.13;;;1.67;;
16800;SDS011;8518;53.236;10.384;2023-04-19T14:58:36;4.10;;;1.90;;
16800;SDS011;8518;53.236;10.384;2023-04-19T15:01:09;3.43;;;1.60;;
16800;SDS011;8518;53.236;10.384;2023-04-19T15:07:01;3.10;;;2.00;;
16800;SDS011;8518;53.236;10.384;2023-04-19T15:12:52;6.67;;;1.90;;
16800;SDS011;8518;53.236;10.384;2023-04-19T15:15:18;3.57;;;1.77;;
16800;SDS011;8518;53.236;10.384;2023-04-19T15:17:45;4.67;;;1.60;;
16800;SDS011;8518;53.236;10.384;2023-04-19T15:20:11;5.50;;;1.70;;
16800;SDS011;8518;53.236;10.384;2023-04-19T15:22:36;5.20;;;2.10;;
16800;SDS011;8518;53.236;10.384;2023-04-19T15:25:10;4.47;;;1.63;;
16800;SDS011;8518;53.236;10.384;2023-04-19T15:27:35;3.90;;;1.70;;
16800;SDS011;8518;53.236;10.384;2023-04-19T15:30:01;5.43;;;1.90;;
16800;SDS011;8518;53.236;10.384;2023-04-19T15:32:30;5.67;;;1.87;;
16800;SDS011;8518;53.236;10.384;2023-04-19T15:34:58;4.80;;;1.87;;
16800;SDS011;8518;53.236;10.384;2023-04-19T15:37:24;4.43;;;1.90;;
16800;SDS011;8518;53.236;10.384;2023-04-19T15:39:51;4.90;;;2.03;;
16800;SDS011;8518;53.236;10.384;2023-04-19T15:42:17;3.80;;;1.90;;
16800;SDS011;8518;53.236;10.384;2023-04-19T15:44:43;2.87;;;1.93;;
16800;SDS011;8518;53.236;10.384;2023-04-19T15:47:08;4.53;;;1.90;;
16800;SDS011;8518;53.236;10.384;2023-04-19T15:49:37;2.73;;;1.70;;
16800;SDS011;8518;53.236;10.384;2023-04-19T15:52:04;4.43;;;1.60;;
16800;SDS011;8518;53.236;10.384;2023-04-19T15:54:30;3.73;;;1.67;;
16800;SDS011;8518;53.236;10.384;2023-04-19T15:56:56;3.00;;;1.70;;
16800;SDS011;8518;53.236;10.384;2023-04-19T15:59:22;4.20;;;2.00;;
16800;SDS011;8518;53.236;10.384;2023-04-19T16:01:47;7.00;;;1.93;;
16800;SDS011;8518;53.236;10.384;2023-04-19T16:07:37;4.80;;;2.13;;
16800;SDS011;8518;53.236;10.384;2023-04-19T16:10:03;4.70;;;1.70;;
16800;SDS011;8518;53.236;10.384;2023-04-19T16:12:29;3.00;;;1.53;;
16800;SDS011;8518;53.236;10.384;2023-04-19T16:14:58;3.83;;;1.90;;
16800;SDS011;8518;53.236;10.384;2023-04-19T16:17:26;3.93;;;1.80;;
16800;SDS011;8518;53.236;10.384;2023-04-19T16:19:52;5.40;;;1.83;;
16800;SDS011;8518;53.236;10.384;2023-04-19T16:22:18;4.77;;;1.50;;
16800;SDS011;8518;53.236;10.384;2023-04-19T16:24:46;4.03;;;1.53;;
16800;SDS011;8518;53.236;10.384;2023-04-19T16:27:12;4.80;;;1.43;;
16800;SDS011;8518;53.236;10.384;2023-04-19T16:29:38;6.03;;;1.37;;
16800;SDS011;8518;53.236;10.384;2023-04-19T16:32:03;7.63;;;1.77;;
16800;SDS011;8518;53.236;10.384;2023-04-19T16:37:53;8.73;;;1.73;;
16800;SDS011;8518;53.236;10.384;2023-04-19T16:43:43;2.80;;;1.40;;
16800;SDS011;8518;53.236;10.384;2023-04-19T16:46:11;4.03;;;1.37;;
16800;SDS011;8518;53.236;10.384;2023-04-19T16:48:36;2.57;;;1.57;;
16800;SDS011;8518;53.236;10.384;2023-04-19T16:51:02;2.90;;;1.70;;
16800;SDS011;8518;53.236;10.384;2023-04-19T16:53:29;5.50;;;1.97;;
16800;SDS011;8518;53.236;10.384;2023-04-19T16:55:58;2.10;;;1.60;;
16800;SDS011;8518;53.236;10.384;2023-04-19T16:58:24;3.20;;;1.73;;
16800;SDS011;8518;53.236;10.384;2023-04-19T17:00:50;5.80;;;1.37;;
16800;SDS011;8518;53.236;10.384;2023-04-19T17:06:39;2.07;;;1.70;;
16800;SDS011;8518;53.236;10.384;2023-04-19T17:09:07;4.23;;;1.57;;
16800;SDS011;8518;53.236;10.384;2023-04-19T17:11:33;4.43;;;1.80;;
16800;SDS011;8518;53.236;10.384;2023-04-19T17:17:22;3.93;;;1.60;;
16800;SDS011;8518;53.236;10.384;2023-04-19T17:19:51;4.50;;;2.00;;
16800;SDS011;8518;53.236;10.384;2023-04-19T17:22:17;3.43;;;1.80;;
16800;SDS011;8518;53.236;10.384;2023-04-19T17:24:43;4.07;;;1.60;;
16800;SDS011;8518;53.236;10.384;2023-04-19T17:27:11;2.53;;;1.40;;
16800;SDS011;8518;53.236;10.384;2023-04-19T17:29:40;3.97;;;1.90;;
16800;SDS011;8518;53.236;10.384;2023-04-19T17:32:06;3.67;;;1.63;;
16800;SDS011;8518;53.236;10.384;2023-04-19T17:37:55;7.53;;;1.97;;
16800;SDS011;8518;53.236;10.384;2023-04-19T17:40:20;2.83;;;1.70;;
16800;SDS011;8518;53.236;10.384;2023-04-19T17:46:09;3.93;;;1.90;;
16800;SDS011;8518;53.236;10.384;2023-04-19T17:48:35;5.63;;;2.03;;
16800;SDS011;8518;53.236;10.384;2023-04-19T17:51:00;8.50;;;1.90;;
16800;SDS011;8518;53.236;10.384;2023-04-19T17:53:26;3.30;;;1.80;;
16800;SDS011;8518;53.236;10.384;2023-04-19T17:55:52;5.33;;;1.90;;
16800;SDS011;8518;53.236;10.384;2023-04-19T17:58:18;2.60;;;1.77;;
16800;SDS011;8518;53.236;10.384;2023-04-19T18:00:43;2.73;;;1.97;;
16800;SDS011;8518;53.236;10.384;2023-04-19T18:06:31;2.83;;;1.87;;
16800;SDS011;8518;53.236;10.384;2023-04-19T18:08:59;2.43;;;1.80;;
16800;SDS011;8518;53.236;10.384;2023-04-19T18:11:25;4.13;;;1.83;;
16800;SDS011;8518;53.236;10.384;2023-04-19T18:17:13;2.80;;;1.87;;
16800;SDS011;8518;53.236;10.384;2023-04-19T18:23:01;2.40;;;1.90;;
16800;SDS011;8518;53.236;10.384;2023-04-19T18:25:27;5.07;;;2.30;;
16800;SDS011;8518;53.236;10.384;2023-04-19T18:27:53;3.80;;;2.00;;
16800;SDS011;8518;53.236;10.384;2023-04-19T18:30:19;5.40;;;1.90;;
16800;SDS011;8518;53.236;10.384;2023-04-19T18:36:07;3.93;;;2.07;;
16800;SDS011;8518;53.236;10.384;2023-04-19T18:38:32;4.03;;;1.80;;